sensor_id;sensor_type;location;lat;lon;timestamp;P1;durP1;ratioP1;P2;durP2;ratioP2
54683;SDS011;40582;53.100;6.686;2022-09-17T00:00:59;30.30;;;4.68;;
54683;SDS011;40582;53.100;6.686;2022-09-17T00:03:25;34.33;;;4.82;;
54683;SDS011;40582;53.100;6.686;2022-09-17T00:06:02;35.50;;;4.68;;
54683;SDS011;40582;53.100;6.686;2022-09-17T00:08:30;32.83;;;4.78;;
54683;SDS011;40582;53.100;6.686;2022-09-17T00:10:56;37.97;;;5.18;;
54683;SDS011;40582;53.100;6.686;2022-09-17T00:13:22;29.58;;;3.75;;
54683;SDS011;40582;53.100;6.686;2022-09-17T00:15:48;30.23;;;4.63;;
54683;SDS011;40582;53.100;6.686;2022-09-17T00:18:16;27.80;;;4.40;;
54683;SDS011;40582;53.100;6.686;2022-09-17T00:20:43;26.10;;;4.63;;
54683;SDS011;40582;53.100;6.686;2022-09-17T00:23:11;33.35;;;4.50;;
54683;SDS011;40582;53.100;6.686;2022-09-17T00:25:42;27.45;;;4.97;;
54683;SDS011;40582;53.100;6.686;2022-09-17T00:28:10;29.15;;;4.40;;
54683;SDS011;40582;53.100;6.686;2022-09-17T00:30:41;20.25;;;3.85;;
54683;SDS011;40582;53.100;6.686;2022-09-17T00:33:08;32.72;;;4.90;;
54683;SDS011;40582;53.100;6.686;2022-09-17T00:35:35;34.88;;;5.30;;
54683;SDS011;40582;53.100;6.686;2022-09-17T00:38:01;30.65;;;4.75;;
54683;SDS011;40582;53.100;6.686;2022-09-17T00:40:27;24.15;;;3.65;;
54683;SDS011;40582;53.100;6.686;2022-09-17T00:42:52;25.90;;;4.00;;
54683;SDS011;40582;53.100;6.686;2022-09-17T00:45:18;17.80;;;2.95;;
54683;SDS011;40582;53.100;6.686;2022-09-17T00:47:45;15.18;;;2.47;;
54683;SDS011;40582;53.100;6.686;2022-09-17T00:50:35;14.05;;;2.22;;
54683;SDS011;40582;53.100;6.686;2022-09-17T00:53:11;13.00;;;2.60;;
54683;SDS011;40582;53.100;6.686;2022-09-17T00:55:41;19.70;;;2.92;;
54683;SDS011;40582;53.100;6.686;2022-09-17T00:58:13;15.82;;;2.90;;
54683;SDS011;40582;53.100;6.686;2022-09-17T01:00:41;24.98;;;2.95;;
54683;SDS011;40582;53.100;6.686;2022-09-17T01:03:06;20.38;;;3.20;;
54683;SDS011;40582;53.100;6.686;2022-09-17T01:05:39;22.85;;;3.63;;
54683;SDS011;40582;53.100;6.686;2022-09-17T01:21:32;20.55;;;4.20;;
54683;SDS011;40582;53.100;6.686;2022-09-17T01:27:25;21.35;;;3.50;;
54683;SDS011;40582;53.100;6.686;2022-09-17T01:30:15;23.05;;;3.45;;
54683;SDS011;40582;53.100;6.686;2022-09-17T01:38:24;28.30;;;4.03;;
54683;SDS011;40582;53.100;6.686;2022-09-17T01:41:50;24.08;;;3.85;;
54683;SDS011;40582;53.100;6.686;2022-09-17T01:43:58;31.73;;;4.68;;
54683;SDS011;40582;53.100;6.686;2022-09-17T01:46:45;27.30;;;4.38;;
54683;SDS011;40582;53.100;6.686;2022-09-17T01:49:13;32.75;;;4.35;;
54683;SDS011;40582;53.100;6.686;2022-09-17T01:51:42;29.88;;;4.50;;
54683;SDS011;40582;53.100;6.686;2022-09-17T01:54:22;25.73;;;4.00;;
54683;SDS011;40582;53.100;6.686;2022-09-17T01:56:58;26.77;;;4.30;;
54683;SDS011;40582;53.100;6.686;2022-09-17T01:59:37;26.02;;;3.97;;
54683;SDS011;40582;53.100;6.686;2022-09-17T02:02:13;24.17;;;4.30;;
54683;SDS011;40582;53.100;6.686;2022-09-17T02:04:54;28.25;;;4.03;;
54683;SDS011;40582;53.100;6.686;2022-09-17T02:07:30;27.77;;;4.60;;
54683;SDS011;40582;53.100;6.686;2022-09-17T02:10:06;27.50;;;4.55;;
54683;SDS011;40582;53.100;6.686;2022-09-17T02:12:37;22.80;;;4.25;;
54683;SDS011;40582;53.100;6.686;2022-09-17T02:15:09;24.77;;;3.75;;
54683;SDS011;40582;53.100;6.686;2022-09-17T02:17:58;28.23;;;4.25;;
54683;SDS011;40582;53.100;6.686;2022-09-17T02:20:39;25.42;;;4.05;;
54683;SDS011;40582;53.100;6.686;2022-09-17T02:23:17;21.10;;;3.40;;
54683;SDS011;40582;53.100;6.686;2022-09-17T02:26:06;26.38;;;4.68;;
54683;SDS011;40582;53.100;6.686;2022-09-17T02:31:01;24.83;;;4.75;;
54683;SDS011;40582;53.100;6.686;2022-09-17T02:33:27;20.13;;;3.72;;
54683;SDS011;40582;53.100;6.686;2022-09-17T02:35:55;21.23;;;4.18;;
54683;SDS011;40582;53.100;6.686;2022-09-17T02:38:23;26.73;;;4.60;;
54683;SDS011;40582;53.100;6.686;2022-09-17T02:40:51;31.92;;;4.88;;
54683;SDS011;40582;53.100;6.686;2022-09-17T02:46:13;29.20;;;4.65;;
54683;SDS011;40582;53.100;6.686;2022-09-17T02:51:52;34.28;;;4.35;;
54683;SDS011;40582;53.100;6.686;2022-09-17T02:58:04;24.88;;;3.72;;
54683;SDS011;40582;53.100;6.686;2022-09-17T03:00:06;28.48;;;3.67;;
54683;SDS011;40582;53.100;6.686;2022-09-17T03:05:11;32.38;;;4.18;;
54683;SDS011;40582;53.100;6.686;2022-09-17T03:07:38;22.95;;;4.47;;
54683;SDS011;40582;53.100;6.686;2022-09-17T03:10:04;20.77;;;2.90;;
54683;SDS011;40582;53.100;6.686;2022-09-17T03:12:30;24.65;;;3.72;;
54683;SDS011;40582;53.100;6.686;2022-09-17T03:14:56;24.20;;;4.07;;
54683;SDS011;40582;53.100;6.686;2022-09-17T03:17:22;30.95;;;3.83;;
54683;SDS011;40582;53.100;6.686;2022-09-17T03:19:47;20.17;;;3.63;;
54683;SDS011;40582;53.100;6.686;2022-09-17T03:22:13;21.88;;;3.25;;
54683;SDS011;40582;53.100;6.686;2022-09-17T03:24:39;17.45;;;3.15;;
54683;SDS011;40582;53.100;6.686;2022-09-17T03:27:05;20.30;;;3.55;;
54683;SDS011;40582;53.100;6.686;2022-09-17T03:29:30;23.10;;;3.88;;
54683;SDS011;40582;53.100;6.686;2022-09-17T03:31:56;24.38;;;3.45;;
54683;SDS011;40582;53.100;6.686;2022-09-17T03:34:22;21.48;;;3.33;;
54683;SDS011;40582;53.100;6.686;2022-09-17T03:36:48;22.92;;;3.28;;
54683;SDS011;40582;53.100;6.686;2022-09-17T03:39:13;23.25;;;3.47;;
54683;SDS011;40582;53.100;6.686;2022-09-17T03:41:39;17.92;;;3.95;;
54683;SDS011;40582;53.100;6.686;2022-09-17T03:44:05;24.23;;;3.25;;
54683;SDS011;40582;53.100;6.686;2022-09-17T03:46:30;19.80;;;4.35;;
54683;SDS011;40582;53.100;6.686;2022-09-17T03:48:56;21.50;;;3.53;;
54683;SDS011;40582;53.100;6.686;2022-09-17T03:51:22;24.10;;;3.53;;
54683;SDS011;40582;53.100;6.686;2022-09-17T03:53:47;25.42;;;3.70;;
54683;SDS011;40582;53.100;6.686;2022-09-17T03:56:13;27.65;;;3.55;;
54683;SDS011;40582;53.100;6.686;2022-09-17T03:58:38;25.50;;;3.45;;
54683;SDS011;40582;53.100;6.686;2022-09-17T04:01:04;30.02;;;3.45;;
54683;SDS011;40582;53.100;6.686;2022-09-17T04:03:30;25.42;;;4.05;;
54683;SDS011;40582;53.100;6.686;2022-09-17T04:05:56;21.67;;;4.50;;
54683;SDS011;40582;53.100;6.686;2022-09-17T04:08:22;18.15;;;3.28;;
54683;SDS011;40582;53.100;6.686;2022-09-17T04:10:48;25.48;;;4.18;;
54683;SDS011;40582;53.100;6.686;2022-09-17T04:13:14;26.00;;;3.63;;
54683;SDS011;40582;53.100;6.686;2022-09-17T04:15:40;26.25;;;3.83;;
54683;SDS011;40582;53.100;6.686;2022-09-17T04:18:07;20.10;;;3.65;;
54683;SDS011;40582;53.100;6.686;2022-09-17T04:20:32;20.67;;;3.40;;
54683;SDS011;40582;53.100;6.686;2022-09-17T04:22:58;28.45;;;3.65;;
54683;SDS011;40582;53.100;6.686;2022-09-17T04:25:24;25.92;;;3.50;;
54683;SDS011;40582;53.100;6.686;2022-09-17T04:27:50;28.15;;;3.58;;
54683;SDS011;40582;53.100;6.686;2022-09-17T04:30:16;28.40;;;4.05;;
54683;SDS011;40582;53.100;6.686;2022-09-17T04:32:42;26.35;;;3.33;;
54683;SDS011;40582;53.100;6.686;2022-09-17T04:35:08;22.23;;;3.60;;
54683;SDS011;40582;53.100;6.686;2022-09-17T04:37:35;27.73;;;3.53;;
54683;SDS011;40582;53.100;6.686;2022-09-17T04:40:01;26.63;;;3.67;;
54683;SDS011;40582;53.100;6.686;2022-09-17T04:42:27;25.77;;;4.30;;
54683;SDS011;40582;53.100;6.686;2022-09-17T04:44:53;27.67;;;3.85;;
54683;SDS011;40582;53.100;6.686;2022-09-17T04:47:18;24.95;;;3.95;;
54683;SDS011;40582;53.100;6.686;2022-09-17T04:49:44;22.17;;;3.90;;
54683;SDS011;40582;53.100;6.686;2022-09-17T04:52:10;30.90;;;3.60;;
54683;SDS011;40582;53.100;6.686;2022-09-17T04:54:35;13.88;;;3.08;;
54683;SDS011;40582;53.100;6.686;2022-09-17T04:57:01;29.10;;;4.18;;
54683;SDS011;40582;53.100;6.686;2022-09-17T04:59:27;18.38;;;3.17;;
54683;SDS011;40582;53.100;6.686;2022-09-17T05:01:52;27.88;;;4.68;;
54683;SDS011;40582;53.100;6.686;2022-09-17T05:04:19;19.40;;;3.83;;
54683;SDS011;40582;53.100;6.686;2022-09-17T05:06:45;34.67;;;4.38;;
54683;SDS011;40582;53.100;6.686;2022-09-17T05:09:10;23.85;;;3.53;;
54683;SDS011;40582;53.100;6.686;2022-09-17T05:11:36;26.13;;;3.83;;
54683;SDS011;40582;53.100;6.686;2022-09-17T05:14:02;23.17;;;3.53;;
54683;SDS011;40582;53.100;6.686;2022-09-17T05:16:27;25.02;;;3.58;;
54683;SDS011;40582;53.100;6.686;2022-09-17T05:18:53;34.35;;;4.38;;
54683;SDS011;40582;53.100;6.686;2022-09-17T05:21:19;26.33;;;3.95;;
54683;SDS011;40582;53.100;6.686;2022-09-17T05:23:45;24.15;;;3.78;;
54683;SDS011;40582;53.100;6.686;2022-09-17T05:26:12;32.33;;;4.68;;
54683;SDS011;40582;53.100;6.686;2022-09-17T05:28:38;25.90;;;4.22;;
54683;SDS011;40582;53.100;6.686;2022-09-17T05:31:04;24.83;;;4.30;;
54683;SDS011;40582;53.100;6.686;2022-09-17T05:33:30;28.58;;;3.95;;
54683;SDS011;40582;53.100;6.686;2022-09-17T05:35:56;19.30;;;3.30;;
54683;SDS011;40582;53.100;6.686;2022-09-17T05:38:21;22.80;;;3.72;;
54683;SDS011;40582;53.100;6.686;2022-09-17T05:40:47;24.17;;;4.00;;
54683;SDS011;40582;53.100;6.686;2022-09-17T05:43:13;24.70;;;3.63;;
54683;SDS011;40582;53.100;6.686;2022-09-17T05:45:39;31.38;;;4.22;;
54683;SDS011;40582;53.100;6.686;2022-09-17T05:48:06;29.70;;;4.70;;
54683;SDS011;40582;53.100;6.686;2022-09-17T05:50:34;23.17;;;4.05;;
54683;SDS011;40582;53.100;6.686;2022-09-17T05:53:07;26.42;;;4.13;;
54683;SDS011;40582;53.100;6.686;2022-09-17T05:58:07;26.27;;;4.65;;
54683;SDS011;40582;53.100;6.686;2022-09-17T06:00:37;24.58;;;3.90;;
54683;SDS011;40582;53.100;6.686;2022-09-17T06:03:04;22.05;;;3.78;;
54683;SDS011;40582;53.100;6.686;2022-09-17T06:05:29;17.15;;;3.13;;
54683;SDS011;40582;53.100;6.686;2022-09-17T06:07:55;21.73;;;3.50;;
54683;SDS011;40582;53.100;6.686;2022-09-17T06:10:21;22.58;;;3.47;;
54683;SDS011;40582;53.100;6.686;2022-09-17T06:12:46;22.52;;;3.50;;
54683;SDS011;40582;53.100;6.686;2022-09-17T06:15:12;19.67;;;3.00;;
54683;SDS011;40582;53.100;6.686;2022-09-17T06:17:39;16.30;;;3.20;;
54683;SDS011;40582;53.100;6.686;2022-09-17T06:20:05;21.30;;;3.70;;
54683;SDS011;40582;53.100;6.686;2022-09-17T06:22:31;13.90;;;2.95;;
54683;SDS011;40582;53.100;6.686;2022-09-17T06:24:57;22.30;;;3.47;;
54683;SDS011;40582;53.100;6.686;2022-09-17T06:27:34;16.20;;;2.83;;
54683;SDS011;40582;53.100;6.686;2022-09-17T06:30:00;10.00;;;2.20;;
54683;SDS011;40582;53.100;6.686;2022-09-17T06:32:27;10.90;;;2.50;;
54683;SDS011;40582;53.100;6.686;2022-09-17T06:34:53;10.50;;;2.20;;
54683;SDS011;40582;53.100;6.686;2022-09-17T06:37:20;18.60;;;2.72;;
54683;SDS011;40582;53.100;6.686;2022-09-17T06:39:51;14.40;;;2.45;;
54683;SDS011;40582;53.100;6.686;2022-09-17T06:42:16;17.17;;;2.75;;
54683;SDS011;40582;53.100;6.686;2022-09-17T06:44:42;19.85;;;3.33;;
54683;SDS011;40582;53.100;6.686;2022-09-17T06:47:08;17.38;;;2.92;;
54683;SDS011;40582;53.100;6.686;2022-09-17T06:49:33;13.35;;;2.42;;
54683;SDS011;40582;53.100;6.686;2022-09-17T06:51:59;14.07;;;2.42;;
54683;SDS011;40582;53.100;6.686;2022-09-17T06:54:25;21.10;;;2.63;;
54683;SDS011;40582;53.100;6.686;2022-09-17T06:56:51;14.25;;;2.45;;
54683;SDS011;40582;53.100;6.686;2022-09-17T06:59:17;13.75;;;2.20;;
54683;SDS011;40582;53.100;6.686;2022-09-17T07:01:43;9.27;;;1.80;;
54683;SDS011;40582;53.100;6.686;2022-09-17T07:04:08;14.93;;;2.42;;
54683;SDS011;40582;53.100;6.686;2022-09-17T07:06:34;10.15;;;1.95;;
54683;SDS011;40582;53.100;6.686;2022-09-17T07:09:00;15.40;;;2.65;;
54683;SDS011;40582;53.100;6.686;2022-09-17T07:11:26;13.30;;;2.38;;
54683;SDS011;40582;53.100;6.686;2022-09-17T07:13:54;11.70;;;2.70;;
54683;SDS011;40582;53.100;6.686;2022-09-17T07:16:20;12.18;;;2.17;;
54683;SDS011;40582;53.100;6.686;2022-09-17T07:18:45;14.32;;;2.28;;
54683;SDS011;40582;53.100;6.686;2022-09-17T07:21:11;15.88;;;2.47;;
54683;SDS011;40582;53.100;6.686;2022-09-17T07:23:37;10.00;;;1.98;;
54683;SDS011;40582;53.100;6.686;2022-09-17T07:26:04;15.23;;;2.55;;
54683;SDS011;40582;53.100;6.686;2022-09-17T07:28:37;13.35;;;2.17;;
54683;SDS011;40582;53.100;6.686;2022-09-17T07:31:04;13.65;;;2.38;;
54683;SDS011;40582;53.100;6.686;2022-09-17T07:33:30;15.43;;;3.08;;
54683;SDS011;40582;53.100;6.686;2022-09-17T07:36:00;15.88;;;2.70;;
54683;SDS011;40582;53.100;6.686;2022-09-17T07:38:28;16.10;;;2.70;;
54683;SDS011;40582;53.100;6.686;2022-09-17T07:40:58;19.85;;;3.22;;
54683;SDS011;40582;53.100;6.686;2022-09-17T07:43:26;16.50;;;2.80;;
54683;SDS011;40582;53.100;6.686;2022-09-17T07:45:55;19.92;;;3.13;;
54683;SDS011;40582;53.100;6.686;2022-09-17T07:48:21;14.68;;;2.70;;
54683;SDS011;40582;53.100;6.686;2022-09-17T07:50:47;20.85;;;2.90;;
54683;SDS011;40582;53.100;6.686;2022-09-17T07:53:13;20.20;;;2.40;;
54683;SDS011;40582;53.100;6.686;2022-09-17T07:55:39;22.13;;;3.03;;
54683;SDS011;40582;53.100;6.686;2022-09-17T07:58:05;16.08;;;2.65;;
54683;SDS011;40582;53.100;6.686;2022-09-17T08:00:31;14.20;;;2.50;;
54683;SDS011;40582;53.100;6.686;2022-09-17T08:02:57;11.95;;;2.50;;
54683;SDS011;40582;53.100;6.686;2022-09-17T08:05:23;20.05;;;3.05;;
54683;SDS011;40582;53.100;6.686;2022-09-17T08:07:53;20.13;;;2.85;;
54683;SDS011;40582;53.100;6.686;2022-09-17T08:10:20;13.73;;;2.92;;
54683;SDS011;40582;53.100;6.686;2022-09-17T08:12:47;20.15;;;2.60;;
54683;SDS011;40582;53.100;6.686;2022-09-17T08:15:16;17.02;;;2.67;;
54683;SDS011;40582;53.100;6.686;2022-09-17T08:17:46;12.35;;;2.17;;
54683;SDS011;40582;53.100;6.686;2022-09-17T08:20:12;18.20;;;2.88;;
54683;SDS011;40582;53.100;6.686;2022-09-17T08:22:38;18.17;;;3.20;;
54683;SDS011;40582;53.100;6.686;2022-09-17T08:25:05;12.68;;;2.45;;
54683;SDS011;40582;53.100;6.686;2022-09-17T08:27:32;13.38;;;1.90;;
54683;SDS011;40582;53.100;6.686;2022-09-17T08:29:58;10.38;;;2.05;;
54683;SDS011;40582;53.100;6.686;2022-09-17T08:32:24;13.50;;;2.35;;
54683;SDS011;40582;53.100;6.686;2022-09-17T08:34:50;8.27;;;1.83;;
54683;SDS011;40582;53.100;6.686;2022-09-17T08:37:18;6.10;;;1.63;;
54683;SDS011;40582;53.100;6.686;2022-09-17T08:39:44;11.18;;;2.15;;
54683;SDS011;40582;53.100;6.686;2022-09-17T08:42:30;12.73;;;2.20;;
54683;SDS011;40582;53.100;6.686;2022-09-17T08:45:14;10.80;;;2.60;;
54683;SDS011;40582;53.100;6.686;2022-09-17T08:47:43;15.05;;;2.60;;
54683;SDS011;40582;53.100;6.686;2022-09-17T08:50:30;14.13;;;3.17;;
54683;SDS011;40582;53.100;6.686;2022-09-17T09:04:01;16.55;;;2.67;;
54683;SDS011;40582;53.100;6.686;2022-09-17T09:06:43;17.88;;;3.20;;
54683;SDS011;40582;53.100;6.686;2022-09-17T09:09:14;15.60;;;2.40;;
54683;SDS011;40582;53.100;6.686;2022-09-17T09:11:44;15.65;;;2.90;;
54683;SDS011;40582;53.100;6.686;2022-09-17T09:14:15;9.27;;;1.80;;
54683;SDS011;40582;53.100;6.686;2022-09-17T09:16:45;8.88;;;2.25;;
54683;SDS011;40582;53.100;6.686;2022-09-17T09:24:25;18.42;;;2.95;;
54683;SDS011;40582;53.100;6.686;2022-09-17T09:27:08;11.90;;;2.15;;
54683;SDS011;40582;53.100;6.686;2022-09-17T09:32:55;12.05;;;2.58;;
54683;SDS011;40582;53.100;6.686;2022-09-17T09:35:23;15.75;;;2.17;;
54683;SDS011;40582;53.100;6.686;2022-09-17T09:41:12;20.05;;;2.42;;
54683;SDS011;40582;53.100;6.686;2022-09-17T09:43:44;10.98;;;2.75;;
54683;SDS011;40582;53.100;6.686;2022-09-17T09:55:39;8.90;;;1.90;;
54683;SDS011;40582;53.100;6.686;2022-09-17T09:58:35;8.50;;;2.15;;
54683;SDS011;40582;53.100;6.686;2022-09-17T10:01:08;13.63;;;2.58;;
54683;SDS011;40582;53.100;6.686;2022-09-17T10:03:46;14.20;;;2.63;;
54683;SDS011;40582;53.100;6.686;2022-09-17T10:06:16;13.20;;;2.22;;
54683;SDS011;40582;53.100;6.686;2022-09-17T10:11:22;9.27;;;1.92;;
54683;SDS011;40582;53.100;6.686;2022-09-17T10:13:49;11.57;;;2.45;;
54683;SDS011;40582;53.100;6.686;2022-09-17T10:16:16;12.75;;;2.63;;
54683;SDS011;40582;53.100;6.686;2022-09-17T10:19:12;12.52;;;2.20;;
54683;SDS011;40582;53.100;6.686;2022-09-17T10:21:49;14.35;;;2.30;;
54683;SDS011;40582;53.100;6.686;2022-09-17T10:24:22;11.73;;;2.80;;
54683;SDS011;40582;53.100;6.686;2022-09-17T10:27:04;12.43;;;2.38;;
54683;SDS011;40582;53.100;6.686;2022-09-17T10:29:32;12.35;;;2.60;;
54683;SDS011;40582;53.100;6.686;2022-09-17T10:31:58;15.65;;;2.70;;
54683;SDS011;40582;53.100;6.686;2022-09-17T10:34:28;33.95;;;4.38;;
54683;SDS011;40582;53.100;6.686;2022-09-17T10:36:55;16.95;;;3.42;;
54683;SDS011;40582;53.100;6.686;2022-09-17T10:39:34;12.73;;;2.58;;
54683;SDS011;40582;53.100;6.686;2022-09-17T10:44:33;14.48;;;3.15;;
54683;SDS011;40582;53.100;6.686;2022-09-17T10:47:01;14.05;;;2.75;;
54683;SDS011;40582;53.100;6.686;2022-09-17T10:49:42;17.63;;;3.33;;
54683;SDS011;40582;53.100;6.686;2022-09-17T11:09:04;18.67;;;3.58;;
54683;SDS011;40582;53.100;6.686;2022-09-17T11:11:43;20.05;;;3.38;;
54683;SDS011;40582;53.100;6.686;2022-09-17T11:23:02;22.40;;;3.45;;
54683;SDS011;40582;53.100;6.686;2022-09-17T11:26:17;17.50;;;2.90;;
54683;SDS011;40582;53.100;6.686;2022-09-17T11:36:21;17.63;;;3.17;;
54683;SDS011;40582;53.100;6.686;2022-09-17T11:38:51;14.40;;;2.63;;
54683;SDS011;40582;53.100;6.686;2022-09-17T11:41:21;22.73;;;3.40;;
54683;SDS011;40582;53.100;6.686;2022-09-17T11:47:31;13.98;;;3.30;;
54683;SDS011;40582;53.100;6.686;2022-09-17T11:49:38;16.67;;;2.55;;
54683;SDS011;40582;53.100;6.686;2022-09-17T11:52:20;17.30;;;3.50;;
54683;SDS011;40582;53.100;6.686;2022-09-17T11:57:41;20.58;;;3.00;;
54683;SDS011;40582;53.100;6.686;2022-09-17T12:00:15;20.10;;;3.10;;
54683;SDS011;40582;53.100;6.686;2022-09-17T12:02:55;20.35;;;2.60;;
54683;SDS011;40582;53.100;6.686;2022-09-17T12:05:30;22.70;;;4.05;;
54683;SDS011;40582;53.100;6.686;2022-09-17T12:10:44;22.73;;;3.10;;
54683;SDS011;40582;53.100;6.686;2022-09-17T12:15:51;24.23;;;3.67;;
54683;SDS011;40582;53.100;6.686;2022-09-17T12:20:54;18.50;;;3.45;;
54683;SDS011;40582;53.100;6.686;2022-09-17T12:23:30;18.00;;;2.97;;
54683;SDS011;40582;53.100;6.686;2022-09-17T12:51:35;13.48;;;2.95;;
54683;SDS011;40582;53.100;6.686;2022-09-17T12:54:23;17.05;;;3.03;;
54683;SDS011;40582;53.100;6.686;2022-09-17T12:57:10;28.10;;;4.07;;
54683;SDS011;40582;53.100;6.686;2022-09-17T13:21:21;17.55;;;3.25;;
54683;SDS011;40582;53.100;6.686;2022-09-17T13:23:54;21.90;;;3.75;;
54683;SDS011;40582;53.100;6.686;2022-09-17T13:26:21;25.00;;;3.85;;
54683;SDS011;40582;53.100;6.686;2022-09-17T13:28:58;14.88;;;3.15;;
54683;SDS011;40582;53.100;6.686;2022-09-17T13:33:58;24.58;;;4.72;;
54683;SDS011;40582;53.100;6.686;2022-09-17T13:38:58;24.40;;;4.25;;
54683;SDS011;40582;53.100;6.686;2022-09-17T13:41:25;22.52;;;4.47;;
54683;SDS011;40582;53.100;6.686;2022-09-17T13:43:52;28.27;;;4.47;;
54683;SDS011;40582;53.100;6.686;2022-09-17T13:46:21;18.42;;;3.78;;
54683;SDS011;40582;53.100;6.686;2022-09-17T13:48:53;23.70;;;3.53;;
54683;SDS011;40582;53.100;6.686;2022-09-17T13:53:54;18.70;;;3.20;;
54683;SDS011;40582;53.100;6.686;2022-09-17T13:56:32;17.58;;;2.45;;
54683;SDS011;40582;53.100;6.686;2022-09-17T13:59:20;14.40;;;2.80;;
54683;SDS011;40582;53.100;6.686;2022-09-17T14:02:24;19.25;;;2.95;;
54683;SDS011;40582;53.100;6.686;2022-09-17T14:04:49;23.88;;;3.67;;
54683;SDS011;40582;53.100;6.686;2022-09-17T14:09:51;13.80;;;3.42;;
54683;SDS011;40582;53.100;6.686;2022-09-17T14:12:48;15.18;;;2.65;;
54683;SDS011;40582;53.100;6.686;2022-09-17T14:21:08;11.63;;;2.60;;
54683;SDS011;40582;53.100;6.686;2022-09-17T14:23:42;13.02;;;2.70;;
54683;SDS011;40582;53.100;6.686;2022-09-17T14:26:18;16.63;;;3.00;;
54683;SDS011;40582;53.100;6.686;2022-09-17T14:31:30;18.83;;;3.28;;
54683;SDS011;40582;53.100;6.686;2022-09-17T14:34:01;22.98;;;3.17;;
54683;SDS011;40582;53.100;6.686;2022-09-17T14:36:29;14.82;;;2.55;;
54683;SDS011;40582;53.100;6.686;2022-09-17T14:39:02;16.73;;;2.58;;
54683;SDS011;40582;53.100;6.686;2022-09-17T14:41:33;12.73;;;2.60;;
54683;SDS011;40582;53.100;6.686;2022-09-17T14:44:11;8.25;;;1.98;;
54683;SDS011;40582;53.100;6.686;2022-09-17T14:49:27;19.02;;;3.13;;
54683;SDS011;40582;53.100;6.686;2022-09-17T14:51:56;9.23;;;2.22;;
54683;SDS011;40582;53.100;6.686;2022-09-17T14:54:24;22.60;;;2.70;;
54683;SDS011;40582;53.100;6.686;2022-09-17T14:56:52;18.05;;;3.53;;
54683;SDS011;40582;53.100;6.686;2022-09-17T14:59:19;15.55;;;2.45;;
54683;SDS011;40582;53.100;6.686;2022-09-17T15:01:49;11.05;;;2.53;;
54683;SDS011;40582;53.100;6.686;2022-09-17T15:04:19;19.52;;;2.70;;
54683;SDS011;40582;53.100;6.686;2022-09-17T15:06:47;13.93;;;2.63;;
54683;SDS011;40582;53.100;6.686;2022-09-17T15:09:32;21.42;;;2.88;;
54683;SDS011;40582;53.100;6.686;2022-09-17T15:11:57;9.98;;;2.35;;
54683;SDS011;40582;53.100;6.686;2022-09-17T15:14:28;14.38;;;2.58;;
54683;SDS011;40582;53.100;6.686;2022-09-17T15:16:56;16.85;;;2.60;;
54683;SDS011;40582;53.100;6.686;2022-09-17T15:19:36;9.02;;;2.30;;
54683;SDS011;40582;53.100;6.686;2022-09-17T15:22:27;12.27;;;2.60;;
54683;SDS011;40582;53.100;6.686;2022-09-17T15:25:02;18.92;;;2.90;;
54683;SDS011;40582;53.100;6.686;2022-09-17T15:27:35;16.25;;;2.80;;
54683;SDS011;40582;53.100;6.686;2022-09-17T15:30:18;16.48;;;3.15;;
54683;SDS011;40582;53.100;6.686;2022-09-17T15:32:48;13.95;;;2.78;;
54683;SDS011;40582;53.100;6.686;2022-09-17T15:40:13;13.82;;;2.38;;
54683;SDS011;40582;53.100;6.686;2022-09-17T15:42:48;17.10;;;2.28;;
54683;SDS011;40582;53.100;6.686;2022-09-17T15:45:20;13.32;;;2.75;;
54683;SDS011;40582;53.100;6.686;2022-09-17T15:47:51;23.30;;;2.95;;
54683;SDS011;40582;53.100;6.686;2022-09-17T15:50:26;12.48;;;2.97;;
54683;SDS011;40582;53.100;6.686;2022-09-17T15:53:12;15.50;;;2.30;;
54683;SDS011;40582;53.100;6.686;2022-09-17T15:58:25;11.23;;;2.65;;
54683;SDS011;40582;53.100;6.686;2022-09-17T16:08:42;13.45;;;2.30;;
54683;SDS011;40582;53.100;6.686;2022-09-17T16:11:12;16.70;;;2.92;;
54683;SDS011;40582;53.100;6.686;2022-09-17T16:13:41;16.10;;;2.13;;
54683;SDS011;40582;53.100;6.686;2022-09-17T16:16:08;12.98;;;2.50;;
54683;SDS011;40582;53.100;6.686;2022-09-17T16:18:40;9.95;;;2.28;;
54683;SDS011;40582;53.100;6.686;2022-09-17T16:21:06;20.30;;;2.78;;
54683;SDS011;40582;53.100;6.686;2022-09-17T16:23:36;7.43;;;1.83;;
54683;SDS011;40582;53.100;6.686;2022-09-17T16:26:02;13.27;;;1.92;;
54683;SDS011;40582;53.100;6.686;2022-09-17T16:28:29;13.57;;;2.53;;
54683;SDS011;40582;53.100;6.686;2022-09-17T16:30:55;18.75;;;2.72;;
54683;SDS011;40582;53.100;6.686;2022-09-17T16:33:21;16.90;;;3.08;;
54683;SDS011;40582;53.100;6.686;2022-09-17T16:35:48;12.95;;;2.58;;
54683;SDS011;40582;53.100;6.686;2022-09-17T16:38:14;17.58;;;2.53;;
54683;SDS011;40582;53.100;6.686;2022-09-17T16:40:43;20.33;;;2.67;;
54683;SDS011;40582;53.100;6.686;2022-09-17T16:43:12;17.50;;;3.00;;
54683;SDS011;40582;53.100;6.686;2022-09-17T16:45:38;14.73;;;2.90;;
54683;SDS011;40582;53.100;6.686;2022-09-17T16:48:04;24.92;;;2.65;;
54683;SDS011;40582;53.100;6.686;2022-09-17T16:50:31;15.60;;;2.90;;
54683;SDS011;40582;53.100;6.686;2022-09-17T16:52:57;20.73;;;2.83;;
54683;SDS011;40582;53.100;6.686;2022-09-17T16:55:22;20.40;;;3.00;;
54683;SDS011;40582;53.100;6.686;2022-09-17T16:57:48;15.18;;;2.85;;
54683;SDS011;40582;53.100;6.686;2022-09-17T17:00:16;15.82;;;2.70;;
54683;SDS011;40582;53.100;6.686;2022-09-17T17:02:51;11.82;;;1.85;;
54683;SDS011;40582;53.100;6.686;2022-09-17T17:05:18;10.25;;;1.80;;
54683;SDS011;40582;53.100;6.686;2022-09-17T17:07:44;15.20;;;2.60;;
54683;SDS011;40582;53.100;6.686;2022-09-17T17:10:10;17.13;;;2.85;;
54683;SDS011;40582;53.100;6.686;2022-09-17T17:12:36;15.25;;;2.83;;
54683;SDS011;40582;53.100;6.686;2022-09-17T17:15:02;21.40;;;3.13;;
54683;SDS011;40582;53.100;6.686;2022-09-17T17:17:30;14.85;;;2.90;;
54683;SDS011;40582;53.100;6.686;2022-09-17T17:19:56;16.48;;;2.92;;
54683;SDS011;40582;53.100;6.686;2022-09-17T17:22:23;13.57;;;2.55;;
54683;SDS011;40582;53.100;6.686;2022-09-17T17:24:49;13.02;;;2.67;;
54683;SDS011;40582;53.100;6.686;2022-09-17T17:27:14;14.40;;;2.72;;
54683;SDS011;40582;53.100;6.686;2022-09-17T17:29:40;14.50;;;2.88;;
54683;SDS011;40582;53.100;6.686;2022-09-17T17:32:06;15.18;;;2.40;;
54683;SDS011;40582;53.100;6.686;2022-09-17T17:34:32;13.35;;;2.78;;
54683;SDS011;40582;53.100;6.686;2022-09-17T17:36:57;21.20;;;3.28;;
54683;SDS011;40582;53.100;6.686;2022-09-17T17:39:23;15.52;;;2.47;;
54683;SDS011;40582;53.100;6.686;2022-09-17T17:41:49;14.45;;;2.65;;
54683;SDS011;40582;53.100;6.686;2022-09-17T17:44:15;16.98;;;2.70;;
54683;SDS011;40582;53.100;6.686;2022-09-17T17:46:40;15.13;;;2.33;;
54683;SDS011;40582;53.100;6.686;2022-09-17T17:49:06;17.05;;;2.65;;
54683;SDS011;40582;53.100;6.686;2022-09-17T17:51:33;11.25;;;2.28;;
54683;SDS011;40582;53.100;6.686;2022-09-17T17:53:58;10.32;;;2.42;;
54683;SDS011;40582;53.100;6.686;2022-09-17T17:56:24;14.18;;;2.50;;
54683;SDS011;40582;53.100;6.686;2022-09-17T17:58:53;9.60;;;2.20;;
54683;SDS011;40582;53.100;6.686;2022-09-17T18:01:21;17.67;;;2.58;;
54683;SDS011;40582;53.100;6.686;2022-09-17T18:03:49;9.95;;;2.35;;
54683;SDS011;40582;53.100;6.686;2022-09-17T18:06:14;10.75;;;2.22;;
54683;SDS011;40582;53.100;6.686;2022-09-17T18:08:41;12.93;;;2.63;;
54683;SDS011;40582;53.100;6.686;2022-09-17T18:11:08;13.05;;;2.28;;
54683;SDS011;40582;53.100;6.686;2022-09-17T18:13:35;12.35;;;2.58;;
54683;SDS011;40582;53.100;6.686;2022-09-17T18:16:02;17.42;;;2.70;;
54683;SDS011;40582;53.100;6.686;2022-09-17T18:18:33;12.15;;;2.50;;